createdAt,value
2023-04-15T00:01:04.750Z,67.57
2023-04-15T00:03:31.384Z,66.79
2023-04-15T00:05:57.952Z,67.16
2023-04-15T00:08:24.390Z,66.79
2023-04-15T00:10:50.765Z,66.00
2023-04-15T00:13:17.226Z,65.27
2023-04-15T00:15:43.662Z,64.57
2023-04-15T00:18:10.134Z,63.53
2023-04-15T00:20:36.535Z,63.49
2023-04-15T00:23:02.935Z,62.72
2023-04-15T00:25:29.373Z,61.06
2023-04-15T00:27:55.879Z,61.96
2023-04-15T00:30:22.313Z,61.18
2023-04-15T00:32:48.775Z,61.13
2023-04-15T00:35:15.276Z,60.79
2023-04-15T00:37:42.161Z,60.41
2023-04-15T00:40:09.357Z,60.03
2023-04-15T00:42:35.787Z,59.30
2023-04-15T00:45:02.238Z,59.96
2023-04-15T00:47:28.731Z,61.03
2023-04-15T00:49:55.175Z,60.84
2023-04-15T00:52:21.578Z,59.21
2023-04-15T00:54:47.990Z,59.70
2023-04-15T00:57:14.492Z,59.50
2023-04-15T00:59:40.926Z,60.78
2023-04-15T01:02:07.497Z,61.31
2023-04-15T01:04:34.227Z,60.60
2023-04-15T01:07:00.766Z,60.35
2023-04-15T01:09:27.242Z,61.21
2023-04-15T01:11:53.712Z,60.53
2023-04-15T01:14:20.168Z,61.16
2023-04-15T01:16:46.604Z,60.15
2023-04-15T01:19:13.079Z,58.11
2023-04-15T01:21:39.513Z,57.64
2023-04-15T01:24:05.961Z,58.59
2023-04-15T01:26:32.452Z,58.26
2023-04-15T01:28:59.082Z,59.09
2023-04-15T01:31:25.861Z,59.80
2023-04-15T01:33:52.334Z,59.93
2023-04-15T01:36:18.789Z,59.71
2023-04-15T01:38:45.223Z,59.03
2023-04-15T01:41:11.695Z,59.47
2023-04-15T01:43:38.236Z,59.50
2023-04-15T01:46:04.735Z,60.92
2023-04-15T01:48:31.179Z,61.81
2023-04-15T01:50:57.594Z,62.02
2023-04-15T01:53:28.732Z,63.30
2023-04-15T01:55:55.203Z,64.53
2023-04-15T02:01:12.704Z,64.29
2023-04-15T02:03:39.299Z,65.51
2023-04-15T02:08:46.151Z,65.45
2023-04-15T02:11:12.590Z,65.50
2023-04-15T02:13:39.070Z,66.95
2023-04-15T02:16:05.553Z,66.23
2023-04-15T02:18:32.042Z,66.29
2023-04-15T02:20:58.681Z,65.16
2023-04-15T02:23:25.432Z,65.80
2023-04-15T02:25:53.529Z,66.16
2023-04-15T02:28:20.850Z,64.21
2023-04-15T02:30:47.261Z,64.76
2023-04-15T02:33:13.702Z,64.68
2023-04-15T02:35:40.144Z,64.91
2023-04-15T02:38:06.582Z,64.44
2023-04-15T02:40:32.999Z,65.05
2023-04-15T02:42:59.420Z,64.82
2023-04-15T02:45:25.852Z,65.26
2023-04-15T02:47:52.318Z,64.85
2023-04-15T02:50:18.846Z,64.59
2023-04-15T02:52:45.327Z,64.56
2023-04-15T02:55:11.744Z,64.87
2023-04-15T02:57:38.182Z,65.20
2023-04-15T03:00:04.614Z,65.51
2023-04-15T03:02:31.121Z,64.93
2023-04-15T03:04:57.677Z,64.81
2023-04-15T03:07:24.143Z,64.69
2023-04-15T03:09:50.512Z,64.47
2023-04-15T03:12:16.913Z,65.03
2023-04-15T03:14:43.311Z,64.90
2023-04-15T03:17:09.783Z,65.51
2023-04-15T03:19:36.224Z,64.80
2023-04-15T03:22:02.633Z,65.08
2023-04-15T03:24:29.123Z,65.01
2023-04-15T03:26:55.558Z,63.95
2023-04-15T03:29:21.982Z,64.66
2023-04-15T03:31:48.481Z,64.64
2023-04-15T03:34:14.895Z,64.17
2023-04-15T03:36:41.334Z,63.64
2023-04-15T03:39:07.713Z,64.34
2023-04-15T03:41:34.133Z,64.51
2023-04-15T03:44:00.547Z,64.45
2023-04-15T03:46:26.959Z,64.67
2023-04-15T03:48:56.249Z,64.46
2023-04-15T03:51:22.670Z,64.55
2023-04-15T03:53:49.179Z,64.32
2023-04-15T03:56:15.600Z,64.26
2023-04-15T03:58:42.099Z,64.92
2023-04-15T04:01:08.563Z,64.81
2023-04-15T04:03:35.040Z,65.57
2023-04-15T04:06:01.594Z,64.92
2023-04-15T04:08:28.050Z,64.21
2023-04-15T04:10:54.538Z,64.27
2023-04-15T04:13:21.056Z,64.93
2023-04-15T04:15:49.570Z,64.60
2023-04-15T04:18:16.088Z,65.38
2023-04-15T04:20:42.523Z,65.29
2023-04-15T04:23:09.000Z,65.27
2023-04-15T04:25:35.440Z,64.33
2023-04-15T04:28:01.851Z,63.24
2023-04-15T04:30:28.299Z,63.06
2023-04-15T04:32:54.730Z,63.98
2023-04-15T04:35:21.220Z,64.42
2023-04-15T04:37:47.664Z,64.47
2023-04-15T04:40:14.136Z,64.92
2023-04-15T04:42:40.561Z,64.40
2023-04-15T04:45:07.008Z,65.25
2023-04-15T04:47:33.448Z,65.23
2023-04-15T04:49:59.889Z,64.92
2023-04-15T04:52:26.333Z,65.42
2023-04-15T04:54:52.758Z,66.80
2023-04-15T04:57:19.177Z,66.51
2023-04-15T04:59:45.622Z,66.25
2023-04-15T05:02:12.144Z,66.12
2023-04-15T05:04:38.629Z,66.33
2023-04-15T05:07:05.052Z,66.59
2023-04-15T05:09:31.493Z,65.60
2023-04-15T05:11:57.920Z,65.55
2023-04-15T05:14:24.322Z,65.98
2023-04-15T05:16:50.685Z,66.42
2023-04-15T05:19:17.135Z,66.59
2023-04-15T05:21:43.582Z,66.02
2023-04-15T05:24:09.987Z,66.17
2023-04-15T05:26:36.481Z,66.21
2023-04-15T05:29:03.028Z,66.79
2023-04-15T05:31:29.724Z,67.07
2023-04-15T05:33:56.635Z,67.10
2023-04-15T05:36:23.068Z,67.53
2023-04-15T05:38:49.552Z,67.25
2023-04-15T05:44:07.610Z,66.38
2023-04-15T05:46:34.068Z,67.27
2023-04-15T05:49:00.879Z,66.64
2023-04-15T05:51:27.497Z,67.48
2023-04-15T05:53:53.996Z,66.92
2023-04-15T05:59:03.145Z,66.90
2023-04-15T06:01:29.673Z,65.94
2023-04-15T06:03:58.865Z,66.61
2023-04-15T06:06:25.319Z,66.28
2023-04-15T06:08:51.831Z,66.01
2023-04-15T06:11:18.253Z,66.40
2023-04-15T06:13:44.730Z,66.89
2023-04-15T06:16:11.149Z,67.05
2023-04-15T06:18:37.541Z,67.19
2023-04-15T06:21:03.893Z,66.03
2023-04-15T06:23:30.271Z,65.73
2023-04-15T06:25:56.651Z,64.42
2023-04-15T06:28:23.130Z,65.14
2023-04-15T06:30:49.556Z,65.46
2023-04-15T06:33:15.928Z,65.47
2023-04-15T06:35:42.287Z,65.31
2023-04-15T06:38:08.670Z,65.25
2023-04-15T06:40:35.075Z,65.95
2023-04-15T06:43:01.497Z,65.59
2023-04-15T06:45:27.946Z,64.56
2023-04-15T06:47:54.428Z,65.14
2023-04-15T06:50:20.834Z,66.71
2023-04-15T06:52:48.166Z,70.27
2023-04-15T06:55:14.544Z,72.28
2023-04-15T06:57:41.038Z,72.57
2023-04-15T07:00:07.414Z,72.47
2023-04-15T07:02:33.906Z,76.21
2023-04-15T07:05:00.458Z,77.89
2023-04-15T07:07:26.971Z,79.63
2023-04-15T07:09:53.489Z,80.51
2023-04-15T07:18:02.284Z,79.96
2023-04-15T07:20:28.764Z,81.00
2023-04-15T07:22:55.362Z,81.56
2023-04-15T07:25:21.869Z,83.49
2023-04-15T07:27:48.297Z,82.77
2023-04-15T07:30:14.767Z,84.13
2023-04-15T07:32:41.213Z,84.98
2023-04-15T07:35:07.710Z,82.98
2023-04-15T07:37:34.252Z,83.88
2023-04-15T07:40:00.682Z,83.66
2023-04-15T07:42:27.163Z,85.43
2023-04-15T07:44:53.674Z,84.89
2023-04-15T07:47:21.348Z,84.84
2023-04-15T07:49:47.908Z,76.94
2023-04-15T07:52:14.378Z,76.57
2023-04-15T07:54:40.828Z,81.90
2023-04-15T07:57:07.473Z,80.12
2023-04-15T07:59:33.893Z,80.74
2023-04-15T08:02:00.358Z,81.74
2023-04-15T08:04:26.961Z,81.58
2023-04-15T08:06:56.208Z,80.14
2023-04-15T08:09:22.726Z,79.77
2023-04-15T08:11:49.105Z,80.45
2023-04-15T08:14:15.595Z,79.66
2023-04-15T08:16:42.041Z,80.67
2023-04-15T08:19:08.449Z,81.11
2023-04-15T08:21:34.848Z,81.22
2023-04-15T08:24:01.335Z,82.23
2023-04-15T08:26:27.837Z,82.83
2023-04-15T08:28:54.392Z,82.42
2023-04-15T08:31:20.777Z,81.63
2023-04-15T08:33:47.212Z,81.78
2023-04-15T08:36:13.575Z,80.58
2023-04-15T08:38:39.995Z,81.61
2023-04-15T08:41:07.570Z,81.71
2023-04-15T08:43:36.036Z,80.33
2023-04-15T08:46:02.463Z,80.71
2023-04-15T08:48:29.068Z,81.63
2023-04-15T08:50:55.542Z,81.51
2023-04-15T08:53:21.962Z,82.73
2023-04-15T08:55:48.438Z,82.66
2023-04-15T08:58:14.858Z,83.07
2023-04-15T09:00:41.283Z,81.58
2023-04-15T09:03:07.911Z,81.75
2023-04-15T09:05:34.557Z,81.03
2023-04-15T09:08:01.068Z,81.49
2023-04-15T09:10:27.497Z,81.60
2023-04-15T09:12:54.033Z,82.42
2023-04-15T09:15:21.578Z,82.29
2023-04-15T09:17:47.991Z,82.40
2023-04-15T09:20:14.421Z,82.93
2023-04-15T09:22:40.793Z,82.86
2023-04-15T09:25:08.509Z,82.84
2023-04-15T09:27:34.927Z,82.26
2023-04-15T09:30:01.372Z,82.58
2023-04-15T09:32:27.883Z,82.66
2023-04-15T09:34:54.804Z,82.21
2023-04-15T09:37:32.443Z,78.13
2023-04-15T09:39:59.084Z,82.17
2023-04-15T09:42:25.459Z,81.16
2023-04-15T09:44:51.905Z,81.84
2023-04-15T09:47:19.372Z,81.59
2023-04-15T09:49:46.973Z,81.62
2023-04-15T09:52:13.473Z,81.30
2023-04-15T09:54:39.890Z,81.02
2023-04-15T09:57:06.425Z,81.66
2023-04-15T09:59:32.903Z,79.47
2023-04-15T10:04:39.689Z,81.26
2023-04-15T10:07:06.221Z,82.21
2023-04-15T10:09:32.647Z,78.20
2023-04-15T10:12:04.456Z,81.22
2023-04-15T10:14:31.384Z,80.82
2023-04-15T10:16:57.807Z,81.33
2023-04-15T10:19:24.355Z,81.27
2023-04-15T10:21:53.917Z,81.72
2023-04-15T10:24:21.080Z,81.66
2023-04-15T10:26:50.272Z,81.19
2023-04-15T10:29:16.709Z,82.29
2023-04-15T10:31:43.106Z,81.54
2023-04-15T10:34:09.488Z,80.39
2023-04-15T10:36:35.902Z,80.38
2023-04-15T10:39:02.279Z,81.56
2023-04-15T10:41:28.639Z,80.11
2023-04-15T10:43:55.006Z,79.87
2023-04-15T10:46:21.451Z,81.20
2023-04-15T10:48:47.912Z,80.03
2023-04-15T10:51:18.313Z,76.65
2023-04-15T10:53:45.182Z,79.64
2023-04-15T10:56:12.022Z,80.52
2023-04-15T10:58:38.447Z,78.26
2023-04-15T11:01:04.856Z,79.14
2023-04-15T11:03:32.239Z,79.22
2023-04-15T11:05:58.677Z,80.87
2023-04-15T11:08:25.077Z,80.24
2023-04-15T11:10:51.520Z,77.91
2023-04-15T11:13:17.900Z,81.04
2023-04-15T11:15:44.291Z,79.59
2023-04-15T11:18:10.788Z,76.54
2023-04-15T11:20:39.551Z,76.94
2023-04-15T11:23:14.222Z,76.00
2023-04-15T11:25:41.875Z,75.78
2023-04-15T11:28:13.893Z,77.09
2023-04-15T11:30:48.348Z,73.70
2023-04-15T11:33:14.797Z,74.54
2023-04-15T11:35:41.170Z,78.21
2023-04-15T11:38:07.687Z,69.27
2023-04-15T11:40:34.262Z,75.44
2023-04-15T11:43:00.658Z,72.59
2023-04-15T11:45:27.145Z,71.16
2023-04-15T11:48:18.050Z,74.42
2023-04-15T11:50:44.439Z,72.55
2023-04-15T11:53:11.011Z,75.11
2023-04-15T11:55:37.478Z,76.85
2023-04-15T11:58:03.891Z,76.94
2023-04-15T12:00:30.265Z,77.02
2023-04-15T12:02:56.799Z,71.49
2023-04-15T12:05:23.384Z,69.96
2023-04-15T12:07:50.098Z,67.57
2023-04-15T12:10:16.614Z,71.25
2023-04-15T12:12:43.096Z,73.41
2023-04-15T12:15:09.508Z,69.96
2023-04-15T12:17:51.293Z,69.70
2023-04-15T12:20:18.789Z,72.46
2023-04-15T12:22:55.418Z,67.50
2023-04-15T12:25:22.051Z,67.95
2023-04-15T12:27:50.990Z,66.73
2023-04-15T12:30:17.393Z,63.80
2023-04-15T12:32:43.910Z,66.25
2023-04-15T12:35:10.351Z,64.61
2023-04-15T12:37:36.798Z,66.65
2023-04-15T12:40:03.217Z,64.08
2023-04-15T12:42:29.663Z,64.52
2023-04-15T12:44:56.058Z,64.85
2023-04-15T12:47:22.488Z,65.62
2023-04-15T12:49:48.849Z,66.73
2023-04-15T12:52:15.209Z,62.14
2023-04-15T12:54:41.614Z,64.28
2023-04-15T12:57:08.010Z,61.75
2023-04-15T12:59:34.412Z,62.36
2023-04-15T13:02:01.027Z,62.22
2023-04-15T13:04:27.572Z,64.30
2023-04-15T13:06:53.978Z,63.78
2023-04-15T13:09:20.360Z,63.46
2023-04-15T13:11:46.780Z,69.55
2023-04-15T13:14:13.418Z,67.23
2023-04-15T13:16:39.933Z,64.87
2023-04-15T13:19:06.502Z,69.88
2023-04-15T13:21:33.956Z,64.73
2023-04-15T13:24:00.343Z,67.54
2023-04-15T13:26:26.799Z,73.14
2023-04-15T13:28:53.188Z,74.81
2023-04-15T13:31:20.919Z,73.96
2023-04-15T13:33:47.437Z,73.36
2023-04-15T13:36:13.897Z,70.09
2023-04-15T13:38:40.259Z,64.54
2023-04-15T13:41:06.647Z,66.85
2023-04-15T13:43:33.042Z,66.74
2023-04-15T13:45:59.502Z,71.21
2023-04-15T13:48:25.925Z,70.50
2023-04-15T13:50:52.312Z,73.23
2023-04-15T13:53:18.805Z,73.73
2023-04-15T13:55:45.295Z,73.36
2023-04-15T13:58:11.929Z,72.93
2023-04-15T14:00:40.368Z,75.26
2023-04-15T14:03:06.906Z,73.10
2023-04-15T14:05:33.676Z,75.79
2023-04-15T14:08:00.182Z,74.51
2023-04-15T14:10:26.637Z,75.37
2023-04-15T14:12:53.438Z,74.56
2023-04-15T14:15:19.813Z,74.24
2023-04-15T14:17:46.297Z,75.74
2023-04-15T14:20:13.989Z,75.29
2023-04-15T14:25:34.060Z,72.23
2023-04-15T14:28:00.699Z,61.75
2023-04-15T14:30:27.274Z,60.03
2023-04-15T14:32:54.371Z,64.86
2023-04-15T14:35:20.949Z,62.75
2023-04-15T14:37:47.400Z,60.50
2023-04-15T14:40:13.863Z,61.24
2023-04-15T14:42:40.271Z,64.09
2023-04-15T14:45:07.985Z,61.16
2023-04-15T14:47:53.412Z,61.08
2023-04-15T14:50:19.883Z,62.80
2023-04-15T14:52:50.761Z,62.27
2023-04-15T14:55:17.244Z,61.87
2023-04-15T14:57:43.924Z,61.37
2023-04-15T15:00:10.354Z,62.64
2023-04-15T15:02:40.326Z,62.14
2023-04-15T15:05:07.217Z,62.42
2023-04-15T15:07:33.788Z,61.78
2023-04-15T15:10:00.238Z,61.92
2023-04-15T15:12:26.671Z,62.27
2023-04-15T15:14:53.124Z,60.99
2023-04-15T15:17:23.969Z,61.69
2023-04-15T15:19:50.529Z,67.04
2023-04-15T15:22:17.557Z,68.83
2023-04-15T15:24:44.928Z,67.57
2023-04-15T15:27:11.424Z,66.38
2023-04-15T15:29:37.793Z,67.73
2023-04-15T15:32:04.156Z,66.15
2023-04-15T15:34:30.614Z,60.90
2023-04-15T15:36:57.100Z,64.86
2023-04-15T15:39:23.498Z,62.31
2023-04-15T15:41:49.860Z,61.27
2023-04-15T15:44:16.489Z,65.67
2023-04-15T15:46:42.933Z,62.03
2023-04-15T15:49:09.330Z,64.40
2023-04-15T15:51:35.771Z,63.59
2023-04-15T15:54:02.177Z,63.01
2023-04-15T15:56:28.622Z,63.58
2023-04-15T15:58:54.949Z,66.98
2023-04-15T16:01:21.387Z,66.20
2023-04-15T16:03:48.015Z,66.00
2023-04-15T16:06:14.530Z,63.35
2023-04-15T16:08:40.988Z,62.96
2023-04-15T16:11:07.445Z,62.16
2023-04-15T16:13:33.862Z,63.46
2023-04-15T16:16:00.325Z,62.48
2023-04-15T16:18:26.758Z,64.95
2023-04-15T16:20:53.151Z,62.97
2023-04-15T16:23:19.605Z,63.87
2023-04-15T16:25:46.048Z,65.67
2023-04-15T16:28:25.190Z,60.88
2023-04-15T16:30:53.087Z,61.15
2023-04-15T16:33:19.822Z,61.58
2023-04-15T16:35:46.191Z,61.90
2023-04-15T16:38:12.656Z,62.06
2023-04-15T16:40:39.075Z,63.92
2023-04-15T16:43:05.406Z,64.13
2023-04-15T16:45:31.798Z,62.20
2023-04-15T16:47:58.301Z,63.57
2023-04-15T16:50:25.388Z,64.56
2023-04-15T16:52:51.821Z,64.76
2023-04-15T16:55:18.230Z,63.96
2023-04-15T16:58:02.742Z,62.47
2023-04-15T17:00:29.845Z,62.48
2023-04-15T17:02:56.467Z,63.60
2023-04-15T17:05:22.979Z,64.44
2023-04-15T17:07:49.426Z,64.54
2023-04-15T17:10:16.983Z,62.98
2023-04-15T17:12:43.563Z,64.04
2023-04-15T17:15:10.021Z,64.79
2023-04-15T17:17:36.452Z,65.67
2023-04-15T17:20:02.879Z,65.32
2023-04-15T17:22:29.214Z,64.10
2023-04-15T17:24:58.055Z,64.07
2023-04-15T17:27:24.447Z,64.47
2023-04-15T17:29:53.042Z,64.29
2023-04-15T17:32:19.476Z,62.02
2023-04-15T17:34:49.729Z,63.04
2023-04-15T17:37:17.548Z,64.05
2023-04-15T17:39:43.989Z,63.92
2023-04-15T17:42:10.383Z,64.32
2023-04-15T17:44:36.916Z,63.52
2023-04-15T17:47:03.329Z,63.32
2023-04-15T17:49:29.736Z,64.02
2023-04-15T17:51:56.221Z,66.76
2023-04-15T17:57:02.958Z,67.30
2023-04-15T17:59:30.080Z,67.48
2023-04-15T18:01:57.106Z,67.14
2023-04-15T18:04:26.513Z,65.90
2023-04-15T18:06:53.469Z,65.76
2023-04-15T18:12:00.242Z,66.01
2023-04-15T18:14:34.228Z,66.99
2023-04-15T18:17:01.303Z,66.76
2023-04-15T18:19:27.976Z,66.42
2023-04-15T18:21:54.778Z,66.81
2023-04-15T18:24:21.259Z,66.53
2023-04-15T18:26:48.994Z,66.31
2023-04-15T18:29:15.719Z,66.57
2023-04-15T18:31:42.305Z,66.04
2023-04-15T18:34:08.939Z,66.46
2023-04-15T18:36:35.445Z,65.76
2023-04-15T18:39:02.075Z,66.28
2023-04-15T18:41:29.650Z,67.04
2023-04-15T18:43:56.296Z,67.23
2023-04-15T18:46:22.824Z,67.02
2023-04-15T18:48:49.340Z,66.56
2023-04-15T18:51:16.893Z,66.76
2023-04-15T18:53:43.401Z,66.96
2023-04-15T18:56:09.834Z,67.86
2023-04-15T18:59:23.070Z,68.58
2023-04-15T19:01:22.983Z,68.87
2023-04-15T19:03:49.409Z,69.32
2023-04-15T19:06:18.829Z,68.77
2023-04-15T19:08:45.241Z,67.91
2023-04-15T19:11:13.701Z,67.91
2023-04-15T19:13:40.128Z,67.57
2023-04-15T19:16:06.538Z,66.33
2023-04-15T19:18:32.952Z,67.25
2023-04-15T19:21:01.354Z,66.81
2023-04-15T19:23:27.714Z,66.82
2023-04-15T19:25:54.121Z,67.29
2023-04-15T19:28:20.557Z,67.47
2023-04-15T19:30:46.986Z,66.87
2023-04-15T19:33:14.380Z,66.13
2023-04-15T19:35:40.799Z,66.59
2023-04-15T19:38:07.251Z,66.14
2023-04-15T19:40:33.952Z,67.06
2023-04-15T19:43:00.357Z,67.70
2023-04-15T19:45:28.959Z,67.42
2023-04-15T19:47:55.332Z,67.34
2023-04-15T19:50:21.697Z,67.81
2023-04-15T19:52:49.583Z,67.34
2023-04-15T19:55:15.998Z,67.52
2023-04-15T19:57:42.422Z,66.81
2023-04-15T20:00:08.810Z,66.21
2023-04-15T20:02:35.321Z,67.27
2023-04-15T20:05:01.861Z,67.75
2023-04-15T20:07:28.287Z,67.92
2023-04-15T20:09:54.681Z,68.14
2023-04-15T20:12:50.838Z,68.49
2023-04-15T20:15:08.501Z,68.41
2023-04-15T20:17:34.906Z,68.87
2023-04-15T20:20:02.567Z,68.06
2023-04-15T20:22:28.998Z,67.66
2023-04-15T20:24:55.955Z,66.77
2023-04-15T20:27:22.350Z,67.45
2023-04-15T20:29:50.027Z,67.84
2023-04-15T20:32:16.499Z,67.37
2023-04-15T20:34:42.908Z,67.12
2023-04-15T20:37:09.396Z,65.98
2023-04-15T20:39:35.821Z,67.05
2023-04-15T20:42:02.228Z,66.86
2023-04-15T20:44:28.706Z,67.58
2023-04-15T20:46:55.091Z,67.70
2023-04-15T20:49:21.600Z,65.28
2023-04-15T20:51:48.307Z,64.89
2023-04-15T20:54:14.813Z,65.73
2023-04-15T20:56:41.246Z,66.13
2023-04-15T20:59:08.943Z,67.08
2023-04-15T21:01:36.672Z,66.32
2023-04-15T21:04:03.097Z,65.34
2023-04-15T21:06:29.629Z,65.54
2023-04-15T21:08:56.091Z,65.84
2023-04-15T21:11:45.745Z,65.50
2023-04-15T21:14:18.566Z,66.45
2023-04-15T21:16:45.036Z,67.19
2023-04-15T21:19:11.553Z,66.26
2023-04-15T21:21:38.072Z,65.50
2023-04-15T21:24:06.438Z,65.67
2023-04-15T21:26:34.198Z,65.89
2023-04-15T21:29:01.079Z,66.82
2023-04-15T21:31:28.685Z,67.59
2023-04-15T21:33:57.347Z,67.54
2023-04-15T21:36:43.797Z,67.41
2023-04-15T21:39:10.241Z,67.43
2023-04-15T21:41:36.638Z,68.39
2023-04-15T21:46:53.702Z,68.53
2023-04-15T21:49:22.695Z,69.61
2023-04-15T21:51:50.760Z,68.90
2023-04-15T21:54:17.316Z,68.71
2023-04-15T21:56:43.886Z,68.39
2023-04-15T21:59:10.379Z,69.35
2023-04-15T22:01:36.978Z,69.10
2023-04-15T22:04:03.821Z,69.24
2023-04-15T22:06:30.354Z,69.23
2023-04-15T22:08:57.961Z,69.20
2023-04-15T22:11:24.544Z,69.98
2023-04-15T22:13:51.016Z,69.86
2023-04-15T22:16:17.488Z,69.48
2023-04-15T22:18:43.945Z,69.72
2023-04-15T22:21:10.500Z,68.68
2023-04-15T22:23:37.490Z,68.84
2023-04-15T22:26:04.066Z,68.29
2023-04-15T22:28:30.477Z,68.24
2023-04-15T22:30:57.009Z,68.60
2023-04-15T22:33:23.507Z,68.56
2023-04-15T22:35:49.976Z,68.33
2023-04-15T22:38:16.485Z,68.75
2023-04-15T22:40:42.927Z,68.62
2023-04-15T22:43:09.399Z,68.14
2023-04-15T22:45:35.864Z,67.81
2023-04-15T22:48:02.534Z,67.27
2023-04-15T22:53:19.685Z,66.17
2023-04-15T22:55:46.156Z,66.29
2023-04-15T22:58:12.701Z,67.22
2023-04-15T23:00:39.214Z,67.37
2023-04-15T23:03:05.794Z,67.32
2023-04-15T23:05:33.926Z,66.68
2023-04-15T23:08:00.432Z,66.91
2023-04-15T23:10:26.848Z,67.72
2023-04-15T23:12:53.400Z,67.83
2023-04-15T23:15:19.892Z,67.97
2023-04-15T23:17:46.477Z,68.66
2023-04-15T23:20:13.052Z,68.19
2023-04-15T23:22:39.580Z,67.81
2023-04-15T23:25:06.124Z,66.97
2023-04-15T23:27:32.596Z,65.81
2023-04-15T23:29:59.047Z,66.31
2023-04-15T23:32:25.498Z,66.89
2023-04-15T23:34:51.892Z,67.31
2023-04-15T23:37:18.272Z,68.25
2023-04-15T23:39:44.838Z,68.77
2023-04-15T23:42:11.319Z,68.62
2023-04-15T23:44:37.923Z,69.19
2023-04-15T23:47:04.599Z,69.09
2023-04-15T23:49:31.182Z,68.66
2023-04-15T23:51:57.667Z,68.03
2023-04-15T23:54:24.100Z,67.24
2023-04-15T23:56:50.605Z,67.63
2023-04-15T23:59:17.110Z,67.44
